createdAt,value
2017-10-13T00:01:46.674Z,12.10
2017-10-13T00:04:14.871Z,12.20
2017-10-13T00:06:42.279Z,12.10
2017-10-13T00:09:10.619Z,12.10
2017-10-13T00:11:38.035Z,12.10
2017-10-13T00:14:06.223Z,12.00
2017-10-13T00:16:33.668Z,12.10
2017-10-13T00:19:01.838Z,12.00
2017-10-13T00:21:30.016Z,12.00
2017-10-13T00:23:58.193Z,12.00
2017-10-13T00:26:26.379Z,12.00
2017-10-13T00:28:53.811Z,12.00
2017-10-13T00:31:21.211Z,12.10
2017-10-13T00:33:48.624Z,12.00
2017-10-13T00:36:16.805Z,12.00
2017-10-13T00:38:44.995Z,12.00
2017-10-13T00:41:12.406Z,12.00
2017-10-13T00:43:40.751Z,11.90
2017-10-13T00:46:08.162Z,11.90
2017-10-13T00:48:36.338Z,11.90
2017-10-13T00:51:04.531Z,11.90
2017-10-13T00:53:31.943Z,11.90
2017-10-13T00:55:59.380Z,11.90
2017-10-13T00:58:26.783Z,11.90
2017-10-13T01:00:54.963Z,11.80
2017-10-13T01:03:22.391Z,11.70
2017-10-13T01:05:49.843Z,11.70
2017-10-13T01:08:17.256Z,11.60
2017-10-13T01:10:44.673Z,11.70
2017-10-13T01:13:12.855Z,11.60
2017-10-13T01:15:41.958Z,11.50
2017-10-13T01:18:09.389Z,11.50
2017-10-13T01:20:36.807Z,11.50
2017-10-13T01:23:04.227Z,11.50
2017-10-13T01:25:31.659Z,11.60
2017-10-13T01:27:59.851Z,11.50
2017-10-13T01:30:28.042Z,11.50
2017-10-13T01:32:55.487Z,11.50
2017-10-13T01:35:23.194Z,11.50
2017-10-13T01:37:50.619Z,11.50
2017-10-13T01:40:18.034Z,11.60
2017-10-13T01:42:45.962Z,11.60
2017-10-13T01:45:13.376Z,11.60
2017-10-13T01:47:41.739Z,11.70
2017-10-13T01:50:09.940Z,11.70
2017-10-13T01:52:38.151Z,11.70
2017-10-13T01:55:05.571Z,11.70
2017-10-13T01:57:32.995Z,11.70
2017-10-13T02:00:00.504Z,11.70
2017-10-13T02:02:27.925Z,11.70
2017-10-13T02:04:56.118Z,11.70
2017-10-13T02:07:23.586Z,11.70
2017-10-13T02:09:51.017Z,11.60
2017-10-13T02:12:19.195Z,11.60
2017-10-13T02:14:46.631Z,11.60
2017-10-13T02:17:14.838Z,11.60
2017-10-13T02:19:42.272Z,11.60
2017-10-13T02:22:10.454Z,11.60
2017-10-13T02:24:37.890Z,11.60
2017-10-13T02:27:06.084Z,11.60
2017-10-13T02:29:34.264Z,11.60
2017-10-13T02:32:01.696Z,11.60
2017-10-13T02:34:29.870Z,11.60
2017-10-13T02:36:58.074Z,11.70
2017-10-13T02:39:25.521Z,11.70
2017-10-13T02:41:52.951Z,11.70
2017-10-13T02:44:21.147Z,11.70
2017-10-13T02:46:48.563Z,11.70
2017-10-13T02:49:15.984Z,11.70
2017-10-13T02:51:43.423Z,11.70
2017-10-13T02:54:10.857Z,11.60
2017-10-13T02:56:39.048Z,11.50
2017-10-13T02:59:06.540Z,11.50
2017-10-13T03:01:33.994Z,11.50
2017-10-13T03:04:01.444Z,11.40
2017-10-13T03:06:28.876Z,11.50
2017-10-13T03:08:56.299Z,11.50
2017-10-13T03:11:23.724Z,11.50
2017-10-13T03:13:51.144Z,11.50
2017-10-13T03:16:18.566Z,11.50
2017-10-13T03:18:46.792Z,11.60
2017-10-13T03:21:14.202Z,11.60
2017-10-13T03:23:43.328Z,11.50
2017-10-13T03:26:11.527Z,11.60
2017-10-13T03:28:38.961Z,11.50
2017-10-13T03:31:07.352Z,11.50
2017-10-13T03:33:34.807Z,11.50
2017-10-13T03:36:02.275Z,11.40
2017-10-13T03:38:29.719Z,11.40
2017-10-13T03:40:57.151Z,11.40
2017-10-13T03:43:25.336Z,11.50
2017-10-13T03:45:52.746Z,11.50
2017-10-13T03:48:20.935Z,11.50
2017-10-13T03:50:49.144Z,11.50
2017-10-13T03:53:16.563Z,11.50
2017-10-13T03:55:44.783Z,11.50
2017-10-13T03:58:12.198Z,11.50
2017-10-13T04:00:40.412Z,11.60
2017-10-13T04:03:07.823Z,11.60
2017-10-13T04:05:35.239Z,11.60
2017-10-13T04:08:02.683Z,11.60
2017-10-13T04:10:30.125Z,11.60
2017-10-13T04:12:58.318Z,11.60
2017-10-13T04:15:25.762Z,11.60
2017-10-13T04:17:53.195Z,11.60
2017-10-13T04:20:21.399Z,11.50
2017-10-13T04:22:48.858Z,11.50
2017-10-13T04:25:16.266Z,11.50
2017-10-13T04:27:44.789Z,11.60
2017-10-13T04:30:12.206Z,11.60
2017-10-13T04:32:40.419Z,11.60
2017-10-13T04:35:07.828Z,11.60
2017-10-13T04:37:36.016Z,11.60
2017-10-13T04:40:04.251Z,11.50
2017-10-13T04:42:31.683Z,11.50
2017-10-13T04:44:59.098Z,11.60
2017-10-13T04:47:27.313Z,11.60
2017-10-13T04:49:54.739Z,11.60
2017-10-13T04:52:22.943Z,11.60
2017-10-13T04:54:50.376Z,11.60
2017-10-13T04:57:17.787Z,11.70
2017-10-13T04:59:45.213Z,11.60
2017-10-13T05:02:12.642Z,11.60
2017-10-13T05:04:40.067Z,11.60
2017-10-13T05:07:07.483Z,11.60
2017-10-13T05:09:34.938Z,11.50
2017-10-13T05:12:02.338Z,11.50
2017-10-13T05:14:29.828Z,11.50
2017-10-13T05:16:57.235Z,11.40
2017-10-13T05:19:24.667Z,11.40
2017-10-13T05:21:52.091Z,11.40
2017-10-13T05:24:20.414Z,11.50
2017-10-13T05:26:47.856Z,11.50
2017-10-13T05:29:15.284Z,11.60
2017-10-13T05:31:42.718Z,11.60
2017-10-13T05:34:10.120Z,11.60
2017-10-13T05:36:37.543Z,11.60
2017-10-13T05:39:05.761Z,11.60
2017-10-13T05:41:33.204Z,11.60
2017-10-13T05:44:00.611Z,11.60
2017-10-13T05:46:28.809Z,11.60
2017-10-13T05:48:56.240Z,11.60
2017-10-13T05:51:25.163Z,11.60
2017-10-13T05:53:52.590Z,11.60
2017-10-13T05:56:20.020Z,11.70
2017-10-13T05:58:47.449Z,11.70
2017-10-13T06:01:16.039Z,11.70
2017-10-13T06:03:43.430Z,11.70
2017-10-13T06:06:10.851Z,11.70
2017-10-13T06:08:38.278Z,11.60
2017-10-13T06:11:05.687Z,11.70
2017-10-13T06:13:33.121Z,11.70
2017-10-13T06:16:00.569Z,11.70
2017-10-13T06:18:27.975Z,11.70
2017-10-13T06:20:56.190Z,11.80
2017-10-13T06:23:23.609Z,11.80
2017-10-13T06:25:51.026Z,11.80
2017-10-13T06:28:18.437Z,11.80
2017-10-13T06:30:46.652Z,11.80
2017-10-13T06:33:14.080Z,11.90
2017-10-13T06:35:41.502Z,11.90
2017-10-13T06:38:09.711Z,12.00
2017-10-13T06:40:37.122Z,12.00
2017-10-13T06:43:04.552Z,12.00
2017-10-13T06:45:32.009Z,12.10
2017-10-13T06:47:59.547Z,12.10
2017-10-13T06:50:27.016Z,12.20
2017-10-13T06:52:54.431Z,12.20
2017-10-13T06:55:22.648Z,12.30
2017-10-13T06:57:50.054Z,12.30
2017-10-13T07:00:18.250Z,12.30
2017-10-13T07:02:46.605Z,12.30
2017-10-13T07:05:14.777Z,12.30
2017-10-13T07:07:42.959Z,12.30
2017-10-13T07:10:11.135Z,12.30
2017-10-13T07:12:38.543Z,12.30
2017-10-13T07:15:05.968Z,12.40
2017-10-13T07:17:33.378Z,12.50
2017-10-13T07:20:01.555Z,12.50
2017-10-13T07:22:29.743Z,12.50
2017-10-13T07:24:57.923Z,12.50
2017-10-13T07:27:25.406Z,12.50
2017-10-13T07:29:52.893Z,12.60
2017-10-13T07:32:20.315Z,12.70
2017-10-13T07:34:47.767Z,12.70
2017-10-13T07:37:16.112Z,12.80
2017-10-13T07:39:44.282Z,12.90
2017-10-13T07:42:13.163Z,13.00
2017-10-13T07:44:40.600Z,13.00
2017-10-13T07:47:08.032Z,13.00
2017-10-13T07:49:35.487Z,13.10
2017-10-13T07:52:02.922Z,13.20
2017-10-13T07:54:30.403Z,13.20
2017-10-13T07:56:57.803Z,13.30
2017-10-13T07:59:25.252Z,13.40
2017-10-13T08:01:52.665Z,13.40
2017-10-13T08:04:20.074Z,13.50
2017-10-13T08:06:48.279Z,13.60
2017-10-13T08:09:16.631Z,13.50
2017-10-13T08:11:44.823Z,13.60
2017-10-13T08:14:12.235Z,13.60
2017-10-13T08:16:39.698Z,13.60
2017-10-13T08:19:07.887Z,13.80
2017-10-13T08:21:36.067Z,13.80
2017-10-13T08:24:04.245Z,13.90
2017-10-13T08:26:32.441Z,13.90
2017-10-13T08:28:59.849Z,13.90
2017-10-13T08:31:27.275Z,14.00
2017-10-13T08:33:54.698Z,14.00
2017-10-13T08:36:22.900Z,14.00
2017-10-13T08:38:50.327Z,13.90
2017-10-13T08:41:18.518Z,14.10
2017-10-13T08:43:46.851Z,14.00
2017-10-13T08:46:15.054Z,14.10
2017-10-13T08:48:43.226Z,14.20
2017-10-13T08:51:10.649Z,14.20
2017-10-13T08:53:38.067Z,14.30
2017-10-13T08:56:05.512Z,14.30
2017-10-13T08:58:32.970Z,14.30
2017-10-13T09:01:00.379Z,14.30
2017-10-13T09:03:28.600Z,14.50
2017-10-13T09:05:56.003Z,14.50
2017-10-13T09:08:23.790Z,14.70
2017-10-13T09:10:52.021Z,14.80
2017-10-13T09:13:19.451Z,14.80
2017-10-13T09:15:48.198Z,14.80
2017-10-13T09:18:17.307Z,14.90
2017-10-13T09:20:45.531Z,14.90
2017-10-13T09:23:15.973Z,14.90
2017-10-13T09:25:43.369Z,14.90
2017-10-13T09:28:10.796Z,14.90
2017-10-13T09:30:38.206Z,14.80
2017-10-13T09:33:05.618Z,14.90
2017-10-13T09:35:33.790Z,15.00
2017-10-13T09:38:01.987Z,15.00
2017-10-13T09:40:29.460Z,15.00
2017-10-13T09:42:56.867Z,15.00
2017-10-13T09:45:24.291Z,15.10
2017-10-13T09:47:51.705Z,15.30
2017-10-13T09:50:19.150Z,15.50
2017-10-13T09:52:48.256Z,15.60
2017-10-13T09:55:16.167Z,15.60
2017-10-13T09:57:43.585Z,15.80
2017-10-13T10:00:11.012Z,15.90
2017-10-13T10:02:38.415Z,15.90
2017-10-13T10:05:05.830Z,16.00
2017-10-13T10:07:34.021Z,15.90
2017-10-13T10:10:01.909Z,15.90
2017-10-13T10:12:29.365Z,15.80
2017-10-13T10:14:56.786Z,15.90
2017-10-13T10:17:24.259Z,15.90
2017-10-13T10:19:51.736Z,16.00
2017-10-13T10:22:19.140Z,16.00
2017-10-13T10:24:46.559Z,16.00
2017-10-13T10:27:13.990Z,15.90
2017-10-13T10:29:41.406Z,15.90
2017-10-13T10:32:08.864Z,15.90
2017-10-13T10:34:36.269Z,15.90
2017-10-13T10:37:04.388Z,15.90
2017-10-13T10:39:31.803Z,15.90
2017-10-13T10:41:59.223Z,15.90
2017-10-13T10:44:27.403Z,16.00
2017-10-13T10:46:54.818Z,16.00
2017-10-13T10:49:22.344Z,16.10
2017-10-13T10:51:49.727Z,16.30
2017-10-13T10:54:17.155Z,16.40
2017-10-13T10:56:44.573Z,16.40
2017-10-13T10:59:12.780Z,16.40
2017-10-13T11:01:40.199Z,16.40
2017-10-13T11:04:08.380Z,16.40
2017-10-13T11:06:36.559Z,16.30
2017-10-13T11:09:04.043Z,16.30
2017-10-13T11:11:31.452Z,16.30
2017-10-13T11:13:58.860Z,16.20
2017-10-13T11:16:26.313Z,16.20
2017-10-13T11:18:54.176Z,16.20
2017-10-13T11:21:21.575Z,16.30
2017-10-13T11:23:49.871Z,16.50
2017-10-13T11:26:19.010Z,16.60
2017-10-13T11:28:46.943Z,16.60
2017-10-13T11:31:14.423Z,16.80
2017-10-13T11:33:41.845Z,17.00
2017-10-13T11:36:10.035Z,17.40
2017-10-13T11:38:38.230Z,17.40
2017-10-13T11:41:05.655Z,17.40
2017-10-13T11:43:33.839Z,17.70
2017-10-13T11:46:01.258Z,17.60
2017-10-13T11:48:28.671Z,18.50
2017-10-13T11:50:56.947Z,19.30
2017-10-13T11:53:24.339Z,19.80
2017-10-13T11:55:52.170Z,19.60
2017-10-13T11:58:19.590Z,19.40
2017-10-13T12:00:47.771Z,19.30
2017-10-13T12:03:15.207Z,19.30
2017-10-13T12:05:43.389Z,18.60
2017-10-13T12:08:11.577Z,18.30
2017-10-13T12:10:39.760Z,18.00
2017-10-13T12:13:07.180Z,18.00
2017-10-13T12:15:34.591Z,17.80
2017-10-13T12:18:02.040Z,17.80
2017-10-13T12:20:29.457Z,17.70
2017-10-13T12:22:57.971Z,17.80
2017-10-13T12:25:25.387Z,17.70
2017-10-13T12:27:53.565Z,17.60
2017-10-13T12:30:21.755Z,17.60
2017-10-13T12:32:50.875Z,17.70
2017-10-13T12:35:18.917Z,17.70
2017-10-13T12:37:47.122Z,18.80
2017-10-13T12:40:14.579Z,18.80
2017-10-13T12:42:42.006Z,19.50
2017-10-13T12:45:10.197Z,19.90
2017-10-13T12:47:37.602Z,19.90
2017-10-13T12:50:05.120Z,20.40
2017-10-13T12:52:32.575Z,21.00
2017-10-13T12:54:59.992Z,21.10
2017-10-13T12:57:28.171Z,21.20
2017-10-13T12:59:56.356Z,21.20
2017-10-13T13:02:25.066Z,21.30
2017-10-13T13:04:52.487Z,21.20
2017-10-13T13:07:21.312Z,22.10
2017-10-13T13:09:48.691Z,22.00
2017-10-13T13:12:16.146Z,22.70
2017-10-13T13:14:43.557Z,23.30
2017-10-13T13:17:10.979Z,24.00
2017-10-13T13:19:38.398Z,24.00
2017-10-13T13:22:05.815Z,23.30
2017-10-13T13:24:34.005Z,22.10
2017-10-13T13:27:01.480Z,22.00
2017-10-13T13:29:28.937Z,22.20
2017-10-13T13:31:56.406Z,22.00
2017-10-13T13:34:23.817Z,22.70
2017-10-13T13:36:52.029Z,23.90
2017-10-13T13:39:19.446Z,23.90
2017-10-13T13:41:47.638Z,25.60
2017-10-13T13:44:15.053Z,25.60
2017-10-13T13:46:42.470Z,25.60
2017-10-13T13:49:09.895Z,25.70
2017-10-13T13:51:37.552Z,24.90
2017-10-13T13:54:04.962Z,23.90
2017-10-13T13:56:32.395Z,23.50
2017-10-13T13:58:59.810Z,23.00
2017-10-13T14:01:27.224Z,22.70
2017-10-13T14:03:54.641Z,23.20
2017-10-13T14:06:22.328Z,24.00
2017-10-13T14:08:49.750Z,24.40
2017-10-13T14:11:17.934Z,26.30
2017-10-13T14:13:45.352Z,26.20
2017-10-13T14:16:13.544Z,27.20
2017-10-13T14:18:41.740Z,28.00
2017-10-13T14:21:09.217Z,27.90
2017-10-13T14:23:37.690Z,28.70
2017-10-13T14:26:05.152Z,28.90
2017-10-13T14:28:33.162Z,28.20
2017-10-13T14:31:00.587Z,28.20
2017-10-13T14:33:28.554Z,28.60
2017-10-13T14:35:55.985Z,29.50
2017-10-13T14:38:23.417Z,29.40
2017-10-13T14:40:52.533Z,30.30
2017-10-13T14:43:19.944Z,30.20
2017-10-13T14:45:47.381Z,30.60
2017-10-13T14:48:14.922Z,29.80
2017-10-13T14:50:42.306Z,29.90
2017-10-13T14:53:09.725Z,30.30
2017-10-13T14:55:37.148Z,30.80
2017-10-13T14:58:05.322Z,30.10
2017-10-13T15:00:33.499Z,29.10
2017-10-13T15:03:01.684Z,28.30
2017-10-13T15:05:29.793Z,28.20
2017-10-13T15:07:57.190Z,27.90
2017-10-13T15:10:25.382Z,27.30
2017-10-13T15:12:53.539Z,27.10
2017-10-13T15:15:22.643Z,26.70
2017-10-13T15:17:51.590Z,26.50
2017-10-13T15:20:19.014Z,26.40
2017-10-13T15:22:46.440Z,26.30
2017-10-13T15:25:20.228Z,24.50
2017-10-13T15:27:53.322Z,24.50
2017-10-13T15:30:26.519Z,23.10
2017-10-13T15:33:00.456Z,21.10
2017-10-13T15:35:33.560Z,21.10
2017-10-13T15:38:06.675Z,20.80
2017-10-13T15:40:39.944Z,20.50
2017-10-13T15:43:13.098Z,20.30
2017-10-13T15:45:47.047Z,19.70
2017-10-13T15:48:20.053Z,19.70
2017-10-13T15:50:53.162Z,19.60
2017-10-13T15:53:20.569Z,19.50
2017-10-13T15:55:47.980Z,19.40
2017-10-13T15:58:16.201Z,19.30
2017-10-13T16:00:43.899Z,19.10
2017-10-13T16:03:11.559Z,18.70
2017-10-13T16:05:38.970Z,18.60
2017-10-13T16:08:06.643Z,18.60
2017-10-13T16:10:34.056Z,18.50
2017-10-13T16:13:02.280Z,18.30
2017-10-13T16:15:29.675Z,18.30
2017-10-13T16:17:57.091Z,18.20
2017-10-13T16:20:24.544Z,18.20
2017-10-13T16:22:51.937Z,18.10
2017-10-13T16:25:19.356Z,18.00
2017-10-13T16:27:46.766Z,17.90
2017-10-13T16:30:14.975Z,17.70
2017-10-13T16:32:42.569Z,17.70
2017-10-13T16:35:09.938Z,17.60
2017-10-13T16:37:37.364Z,17.50
2017-10-13T16:40:04.783Z,17.50
2017-10-13T16:42:32.280Z,17.30
2017-10-13T16:44:59.699Z,17.30
2017-10-13T16:47:27.123Z,17.20
2017-10-13T16:49:54.542Z,17.10
2017-10-13T16:52:22.463Z,17.00
2017-10-13T16:54:50.647Z,16.90
2017-10-13T16:57:18.062Z,16.80
2017-10-13T16:59:45.476Z,16.80
2017-10-13T17:02:13.043Z,16.80
2017-10-13T17:04:41.175Z,16.70
2017-10-13T17:07:08.586Z,16.70
2017-10-13T17:09:36.012Z,16.60
2017-10-13T17:12:04.342Z,16.60
2017-10-13T17:14:31.763Z,16.60
2017-10-13T17:16:59.187Z,16.60
2017-10-13T17:19:27.379Z,16.60
2017-10-13T17:21:54.800Z,16.60
2017-10-13T17:24:22.980Z,16.50
2017-10-13T17:26:51.162Z,16.50
2017-10-13T17:29:18.610Z,16.40
2017-10-13T17:31:46.795Z,16.40
2017-10-13T17:34:14.972Z,16.40
2017-10-13T17:36:42.392Z,16.40
2017-10-13T17:39:09.905Z,16.40
2017-10-13T17:41:37.320Z,16.40
2017-10-13T17:44:05.500Z,16.30
2017-10-13T17:46:33.691Z,16.30
2017-10-13T17:49:01.575Z,16.30
2017-10-13T17:51:28.992Z,16.40
2017-10-13T17:53:57.207Z,16.40
2017-10-13T17:56:25.571Z,16.30
2017-10-13T17:58:53.023Z,16.30
2017-10-13T18:01:20.453Z,16.30
2017-10-13T18:03:47.858Z,16.20
2017-10-13T18:06:15.310Z,16.20
2017-10-13T18:08:42.746Z,16.10
2017-10-13T18:11:10.164Z,16.10
2017-10-13T18:13:37.577Z,16.10
2017-10-13T18:16:05.003Z,16.10
2017-10-13T18:18:33.181Z,16.00
2017-10-13T18:21:00.602Z,16.00
2017-10-13T18:23:28.008Z,16.00
2017-10-13T18:25:55.631Z,16.00
2017-10-13T18:28:23.047Z,15.90
2017-10-13T18:30:50.497Z,16.00
2017-10-13T18:33:17.908Z,16.00
2017-10-13T18:35:46.124Z,16.00
2017-10-13T18:38:13.539Z,16.00
2017-10-13T18:40:41.713Z,16.00
2017-10-13T18:43:09.925Z,16.00
2017-10-13T18:45:37.324Z,15.90
2017-10-13T18:48:05.519Z,15.90
2017-10-13T18:50:33.731Z,15.90
2017-10-13T18:53:01.159Z,15.90
2017-10-13T18:55:28.591Z,15.90
2017-10-13T18:57:56.019Z,15.90
2017-10-13T19:00:23.443Z,16.00
2017-10-13T19:02:50.867Z,16.00
2017-10-13T19:05:19.091Z,16.00
2017-10-13T19:07:46.483Z,16.00
2017-10-13T19:10:14.749Z,16.00
2017-10-13T19:12:42.290Z,16.00
2017-10-13T19:15:09.711Z,16.00
2017-10-13T19:17:37.388Z,16.10
2017-10-13T19:20:04.813Z,16.10
2017-10-13T19:22:32.994Z,16.10
2017-10-13T19:25:00.407Z,16.10
2017-10-13T19:27:27.838Z,16.10
2017-10-13T19:29:56.483Z,16.10
2017-10-13T19:32:24.791Z,16.10
2017-10-13T19:34:52.195Z,16.10
2017-10-13T19:37:19.703Z,16.10
2017-10-13T19:39:47.126Z,16.10
2017-10-13T19:42:15.306Z,16.00
2017-10-13T19:44:42.722Z,16.00
2017-10-13T19:47:10.148Z,16.00
2017-10-13T19:49:38.631Z,16.00
2017-10-13T19:52:06.075Z,16.00
2017-10-13T19:54:33.499Z,16.00
2017-10-13T19:57:01.699Z,15.80
2017-10-13T19:59:29.121Z,15.80
2017-10-13T20:01:57.628Z,15.80
2017-10-13T20:04:25.919Z,15.80
2017-10-13T20:06:53.334Z,15.70
2017-10-13T20:09:21.517Z,15.70
2017-10-13T20:11:49.701Z,15.70
2017-10-13T20:14:17.111Z,15.70
2017-10-13T20:16:44.580Z,15.70
2017-10-13T20:19:12.020Z,15.60
2017-10-13T20:21:39.426Z,15.60
2017-10-13T20:24:07.619Z,15.50
2017-10-13T20:26:35.210Z,15.40
2017-10-13T20:29:02.676Z,15.40
2017-10-13T20:31:30.642Z,15.40
2017-10-13T20:33:58.053Z,15.30
2017-10-13T20:36:25.471Z,15.30
2017-10-13T20:38:53.656Z,15.30
2017-10-13T20:41:21.842Z,15.30
2017-10-13T20:43:50.111Z,15.20
2017-10-13T20:46:18.560Z,15.20
2017-10-13T20:48:46.143Z,15.20
2017-10-13T20:51:13.707Z,15.20
2017-10-13T20:53:41.899Z,15.10
2017-10-13T20:56:09.327Z,15.00
2017-10-13T20:58:37.547Z,15.00
2017-10-13T21:01:04.987Z,15.00
2017-10-13T21:03:33.028Z,15.00
2017-10-13T21:06:01.215Z,14.90
2017-10-13T21:08:29.406Z,15.00
2017-10-13T21:10:56.838Z,14.90
2017-10-13T21:13:25.051Z,14.90
2017-10-13T21:15:52.456Z,14.90
2017-10-13T21:18:19.967Z,14.90
2017-10-13T21:20:48.383Z,14.90
2017-10-13T21:23:15.813Z,15.00
2017-10-13T21:25:43.258Z,15.00
2017-10-13T21:28:10.651Z,14.90
2017-10-13T21:30:38.068Z,15.00
2017-10-13T21:33:05.488Z,15.00
2017-10-13T21:35:33.702Z,15.00
2017-10-13T21:38:01.123Z,15.00
2017-10-13T21:40:29.338Z,15.00
2017-10-13T21:42:56.742Z,15.00
2017-10-13T21:45:24.958Z,15.10
2017-10-13T21:47:52.368Z,15.10
2017-10-13T21:50:19.782Z,15.10
2017-10-13T21:52:47.242Z,14.90
2017-10-13T21:55:14.668Z,14.90
2017-10-13T21:57:42.083Z,14.90
2017-10-13T22:00:10.292Z,14.90
2017-10-13T22:02:37.749Z,14.90
2017-10-13T22:05:06.843Z,14.90
2017-10-13T22:07:34.999Z,15.00
2017-10-13T22:10:04.181Z,14.90
2017-10-13T22:12:31.606Z,14.90
2017-10-13T22:14:59.833Z,15.00
2017-10-13T22:17:29.717Z,15.00
2017-10-13T22:19:57.118Z,15.00
2017-10-13T22:22:24.567Z,14.90
2017-10-13T22:24:52.755Z,15.00
2017-10-13T22:27:20.182Z,15.00
2017-10-13T22:29:48.389Z,15.00
2017-10-13T22:32:15.881Z,15.00
2017-10-13T22:34:43.368Z,15.10
2017-10-13T22:37:10.783Z,15.10
2017-10-13T22:39:38.221Z,15.10
2017-10-13T22:42:05.697Z,15.20
2017-10-13T22:44:33.746Z,15.20
2017-10-13T22:47:01.179Z,15.30
2017-10-13T22:49:30.391Z,15.40
2017-10-13T22:51:57.814Z,15.40
2017-10-13T22:54:26.050Z,15.50
2017-10-13T22:56:53.458Z,15.50
2017-10-13T22:59:21.638Z,15.50
2017-10-13T23:01:49.074Z,15.50
2017-10-13T23:04:17.262Z,15.50
2017-10-13T23:06:44.741Z,15.50
2017-10-13T23:09:12.159Z,15.60
2017-10-13T23:11:39.583Z,15.60
2017-10-13T23:14:07.024Z,15.60
2017-10-13T23:16:34.425Z,15.60
2017-10-13T23:19:02.748Z,15.70
2017-10-13T23:21:31.091Z,15.80
2017-10-13T23:23:59.285Z,15.80
2017-10-13T23:26:26.716Z,15.80
2017-10-13T23:28:54.923Z,15.80
2017-10-13T23:31:22.340Z,15.80
2017-10-13T23:33:49.763Z,15.90
2017-10-13T23:36:17.379Z,15.90
2017-10-13T23:38:45.679Z,15.90
2017-10-13T23:41:13.083Z,15.90
2017-10-13T23:43:40.596Z,15.90
2017-10-13T23:46:08.003Z,15.90
2017-10-13T23:48:36.219Z,16.00
2017-10-13T23:51:03.638Z,16.00
2017-10-13T23:53:31.849Z,16.00
2017-10-13T23:55:59.241Z,15.90
2017-10-13T23:58:26.658Z,16.00
